Avery, Arkansas
Current Conditions -  °F | °C
As of 1:53 PM on Thursday 30 Oct 2014 (Local Time) from KLLQ Reporting Station
Clear Clear  
Wind Chill: 70°   Ceiling: Unl
Heat Index: 70°   Visibility: 10mi
Dew Point: 46°   Wind: 0mph
Humidity: 42%   Direction: NA
Pressure: 30.1"   Gusts: NA
Location:  33.9283°N, 91.468°W
Report Text: KLLQ 301853Z AUTO 00000KT 10SM CLR 21/08 A3010 RMK AO2 SLP191 T02110078
Loading
Personal Weather Stations






























Interactive Weather Map
Tropical Storm Tracking
New forecast layout! Learn more

10-Day Weather Forecast

Advertisements
Track Severe Weather on mobile